Lions Gate Bridge — H9LV — position and weather

sailwx.info

Track history (hours):
 
Tides and Currents Weather Stations Pressure Air Temp Water Temp Dewpoint Dewpoint Depression Visibility Wind Speed Wind Dir Waves Ship Positions

Lions Gate Bridge

Last reported at 2014-Aug-30 03:17 UTC. Time now 2014-Sep-02 21:24 UTC.
Position N 35°35' E 141°09'.

Length 284.7 m; beam 40 m.

Type: Cargo ship. MMSI: 351086000.

Date/timePositionNaut miles runAvg speedWind from/ knotsBaromVisibWave heightAir tempDewpointWater temp
2014-Aug-30 03:17N 35°35' E 141°09'1520.3
2014-Aug-30 02:33N 35°25' E 140°57'2020.1
2014-Aug-30 01:33N 35°09' E 140°40'2019.9
2014-Aug-30 00:33N 34°57' E 140°21'2019.5
2014-Aug-29 23:33N 34°50' E 139°59'1515.4
2014-Aug-29 22:33N 34°56' E 139°42'1616.4
2014-Aug-29 21:33N 35°12' E 139°46'1312.7
2014-Aug-29 20:34N 35°25' E 139°43'1211.7
2014-Aug-29 19:34N 35°36' E 139°46'1 0.6
2014-Aug-29 18:33N 35°37' E 139°46'0 0.0
2014-Aug-29 17:30N 35°37' E 139°46'0 0.0
2014-Aug-29 16:33N 35°37' E 139°46'0 0.0
2014-Aug-29 15:24N 35°37' E 139°46'0 0.0
2014-Aug-29 14:30N 35°37' E 139°46'0 0.0
2014-Aug-29 13:27N 35°37' E 139°46'0 0.0
2014-Aug-29 12:27N 35°37' E 139°46'0 0.0
2014-Aug-29 11:21N 35°37' E 139°46'0 0.0
2014-Aug-29 10:30N 35°37' E 139°46'0 0.1
2014-Aug-29 09:33N 35°37' E 139°46'0 0.0
2014-Aug-29 08:21N 35°37' E 139°46'0 0.0
2014-Aug-29 07:33N 35°37' E 139°46'0 0.0
2014-Aug-29 06:33N 35°37' E 139°46'0 0.0
2014-Aug-29 05:33N 35°37' E 139°46'0 0.0
2014-Aug-29 04:33N 35°37' E 139°46'0 0.0
2014-Aug-29 03:33N 35°37' E 139°46'0 0.0
2014-Aug-29 02:33N 35°37' E 139°46'2 1.8
2014-Aug-29 01:33N 35°35' E 139°47'10 9.9
2014-Aug-29 00:34N 35°26' E 139°47'1110.8
2014-Aug-28 23:33N 35°15' E 139°47'10 9.6
2014-Aug-28 22:33N 35°05' E 139°45'8 8.4
2014-Aug-28 21:33N 35°00' E 139°36'  
2014-Aug-25 20:18N 25°42' E 121°12'4222.6
2014-Aug-25 18:27N 25°20' E 120°33'2621.8
2014-Aug-25 17:15N 25°04' E 120°10'1821.8
2014-Aug-25 16:26N 24°55' E 119°53'1921.6
2014-Aug-25 15:33N 24°45' E 119°35'2121.3
2014-Aug-25 14:33N 24°33' E 119°16'2121.6
2014-Aug-25 13:34N 24°20' E 118°57'2322.5
2014-Aug-25 12:33N 24°06' E 118°38'2322.9
2014-Aug-25 11:34N 23°51' E 118°19'2222.1
2014-Aug-25 10:33N 23°37' E 118°00'2221.9
2014-Aug-25 09:33N 23°23' E 117°42'2321.1
2014-Aug-25 08:28N 23°11' E 117°20'2021.7
2014-Aug-25 07:33N 22°59' E 117°03'2121.3
2014-Aug-25 06:33N 22°46' E 116°45'2221.9
2014-Aug-25 05:33N 22°33' E 116°26'11818.7
2014-Aug-24 23:14N 22°34' E 114°17'2 2.1
2014-Aug-24 22:22N 22°34' E 114°16'0 0.0
2014-Aug-24 21:28N 22°34' E 114°16'0 0.0
2014-Aug-24 20:28N 22°34' E 114°16'0 0.0
2014-Aug-24 19:28N 22°34' E 114°16'0 0.0
2014-Aug-24 18:28N 22°34' E 114°16'0 0.0
2014-Aug-24 17:28N 22°34' E 114°16'0 0.1
2014-Aug-24 16:28N 22°34' E 114°15'0 0.1
2014-Aug-24 15:28N 22°34' E 114°16'0 0.0
2014-Aug-24 14:28N 22°34' E 114°16'0 0.0
2014-Aug-24 13:28N 22°34' E 114°16'0 0.0
2014-Aug-24 12:28N 22°34' E 114°16'0 0.0
2014-Aug-24 11:28N 22°34' E 114°16'0 0.0
2014-Aug-24 10:28N 22°34' E 114°16'0 0.0
2014-Aug-24 09:28N 22°34' E 114°16'0 0.1
2014-Aug-24 08:28N 22°34' E 114°15'0 0.0
2014-Aug-24 07:28N 22°34' E 114°15'0 0.1
2014-Aug-24 06:28N 22°34' E 114°16'0 0.0
2014-Aug-24 05:28N 22°34' E 114°16'0 0.0
2014-Aug-24 04:28N 22°34' E 114°16'0 0.0
2014-Aug-24 03:32N 22°34' E 114°16'19 3.7
2014-Aug-23 22:29N 22°18' E 114°06'2 2.5
2014-Aug-23 21:32N 22°19' E 114°07'0 0.0
2014-Aug-23 20:08N 22°19' E 114°07'0 0.0
2014-Aug-23 19:20N 22°19' E 114°07'0 0.0
2014-Aug-23 03:26N 22°19' E 114°07'0 0.0
2014-Aug-23 02:32N 22°19' E 114°07'0 0.0
2014-Aug-23 01:32N 22°19' E 114°07'0 0.0
2014-Aug-23 00:14N 22°19' E 114°07'0 0.0
2014-Aug-22 23:32N 22°19' E 114°07'0 0.1
2014-Aug-22 22:25N 22°19' E 114°07'9 7.7
2014-Aug-22 21:12N 22°11' E 114°12'15711.3
2014-Aug-22 07:17N 22°54' E 116°56'1622.0
2014-Aug-22 06:33N 23°04' E 117°09'2221.8
2014-Aug-22 05:33N 23°16' E 117°29'2221.8
2014-Aug-22 04:33N 23°26' E 117°50'2322.6
2014-Aug-22 03:33N 23°42' E 118°08'2221.6
2014-Aug-22 02:33N 23°59' E 118°23'1717.1
2014-Aug-22 01:33N 24°15' E 118°16'1110.5
2014-Aug-22 00:33N 24°22' E 118°08'8 8.0
2014-Aug-21 23:33N 24°27' E 118°01'0 0.0
2014-Aug-21 22:31N 24°27' E 118°01'0 0.0
2014-Aug-21 21:31N 24°27' E 118°01'0 0.0
2014-Aug-21 20:25N 24°27' E 118°01'0 0.1
2014-Aug-21 19:31N 24°27' E 118°01'0 0.0
2014-Aug-21 18:19N 24°27' E 118°01'0 0.0
2014-Aug-21 17:31N 24°27' E 118°01'0 0.0
2014-Aug-21 16:13N 24°27' E 118°01'0 0.1
2014-Aug-21 15:13N 24°27' E 118°01'0 0.0
2014-Aug-21 10:31N 24°27' E 118°01'0 0.0
2014-Aug-21 09:25N 24°27' E 118°01'0 0.1
2014-Aug-21 08:25N 24°27' E 118°01'0 0.1
2014-Aug-21 07:31N 24°27' E 118°01'0 0.1
2014-Aug-21 06:31N 24°27' E 118°01'0 0.0
2014-Aug-21 05:31N 24°27' E 118°01'0 0.0
2014-Aug-21 04:19N 24°27' E 118°01'0 0.0
2014-Aug-21 03:07N 24°27' E 118°01'0 0.1
2014-Aug-21 02:33N 24°27' E 118°01'9 8.9
2014-Aug-21 01:33N 24°22' E 118°09'6 6.2
2014-Aug-21 00:33N 24°17' E 118°14'9 8.7
2014-Aug-20 23:33N 24°12' E 118°22'0 0.2
2014-Aug-20 21:10N 24°12' E 118°22'0 0.0
2014-Aug-20 20:28N 24°12' E 118°22'0 0.0
2014-Aug-20 19:28N 24°12' E 118°22'0 0.1
2014-Aug-20 18:28N 24°12' E 118°22'0 0.1
2014-Aug-20 17:28N 24°12' E 118°22'0 0.0
2014-Aug-20 16:28N 24°12' E 118°22'0 0.1
2014-Aug-20 15:16N 24°12' E 118°22'0 0.0
2014-Aug-20 13:28N 24°12' E 118°22'0 0.0
2014-Aug-20 12:16N 24°12' E 118°22'0 0.0
2014-Aug-20 09:10N 24°12' E 118°22'0 0.0
2014-Aug-20 08:16N 24°12' E 118°22'0 0.0
2014-Aug-20 06:16N 24°12' E 118°22'0 0.1
2014-Aug-20 05:10N 24°12' E 118°22'0 0.0
2014-Aug-20 04:22N 24°12' E 118°22'  
Track history (hours):
 
Tides and Currents Weather Stations Pressure Air Temp Water Temp Dewpoint Dewpoint Depression Visibility Wind Speed Wind Dir Waves Ship Positions

Lions Gate Bridge

Last reported at 2014-Aug-30 03:17 UTC. Time now 2014-Sep-02 21:24 UTC.
Position N 35°35' E 141°09'.

Length 284.7 m; beam 40 m.

Type: Cargo ship. MMSI: 351086000.

Date/timePositionNaut miles runAvg speedWind from/ knotsBaromVisibWave heightAir tempDewpointWater temp
2014-Aug-30 03:17N 35°35' E 141°09'1520.3
2014-Aug-30 02:33N 35°25' E 140°57'2020.1
2014-Aug-30 01:33N 35°09' E 140°40'2019.9
2014-Aug-30 00:33N 34°57' E 140°21'2019.5
2014-Aug-29 23:33N 34°50' E 139°59'1515.4
2014-Aug-29 22:33N 34°56' E 139°42'1616.4
2014-Aug-29 21:33N 35°12' E 139°46'1312.7
2014-Aug-29 20:34N 35°25' E 139°43'1211.7
2014-Aug-29 19:34N 35°36' E 139°46'1 0.6
2014-Aug-29 18:33N 35°37' E 139°46'0 0.0
2014-Aug-29 17:30N 35°37' E 139°46'0 0.0
2014-Aug-29 16:33N 35°37' E 139°46'0 0.0
2014-Aug-29 15:24N 35°37' E 139°46'0 0.0
2014-Aug-29 14:30N 35°37' E 139°46'0 0.0
2014-Aug-29 13:27N 35°37' E 139°46'0 0.0
2014-Aug-29 12:27N 35°37' E 139°46'0 0.0
2014-Aug-29 11:21N 35°37' E 139°46'0 0.0
2014-Aug-29 10:30N 35°37' E 139°46'0 0.1
2014-Aug-29 09:33N 35°37' E 139°46'0 0.0
2014-Aug-29 08:21N 35°37' E 139°46'0 0.0
2014-Aug-29 07:33N 35°37' E 139°46'0 0.0
2014-Aug-29 06:33N 35°37' E 139°46'0 0.0
2014-Aug-29 05:33N 35°37' E 139°46'0 0.0
2014-Aug-29 04:33N 35°37' E 139°46'0 0.0
2014-Aug-29 03:33N 35°37' E 139°46'0 0.0
2014-Aug-29 02:33N 35°37' E 139°46'2 1.8
2014-Aug-29 01:33N 35°35' E 139°47'10 9.9
2014-Aug-29 00:34N 35°26' E 139°47'1110.8
2014-Aug-28 23:33N 35°15' E 139°47'10 9.6
2014-Aug-28 22:33N 35°05' E 139°45'8 8.4
2014-Aug-28 21:33N 35°00' E 139°36'  
2014-Aug-25 20:18N 25°42' E 121°12'4222.6
2014-Aug-25 18:27N 25°20' E 120°33'2621.8
2014-Aug-25 17:15N 25°04' E 120°10'1821.8
2014-Aug-25 16:26N 24°55' E 119°53'1921.6
2014-Aug-25 15:33N 24°45' E 119°35'2121.3
2014-Aug-25 14:33N 24°33' E 119°16'2121.6
2014-Aug-25 13:34N 24°20' E 118°57'2322.5
2014-Aug-25 12:33N 24°06' E 118°38'2322.9
2014-Aug-25 11:34N 23°51' E 118°19'2222.1
2014-Aug-25 10:33N 23°37' E 118°00'2221.9
2014-Aug-25 09:33N 23°23' E 117°42'2321.1
2014-Aug-25 08:28N 23°11' E 117°20'2021.7
2014-Aug-25 07:33N 22°59' E 117°03'2121.3
2014-Aug-25 06:33N 22°46' E 116°45'2221.9
2014-Aug-25 05:33N 22°33' E 116°26'11818.7
2014-Aug-24 23:14N 22°34' E 114°17'2 2.1
2014-Aug-24 22:22N 22°34' E 114°16'0 0.0
2014-Aug-24 21:28N 22°34' E 114°16'0 0.0
2014-Aug-24 20:28N 22°34' E 114°16'0 0.0
2014-Aug-24 19:28N 22°34' E 114°16'0 0.0
2014-Aug-24 18:28N 22°34' E 114°16'0 0.0
2014-Aug-24 17:28N 22°34' E 114°16'0 0.1
2014-Aug-24 16:28N 22°34' E 114°15'0 0.1
2014-Aug-24 15:28N 22°34' E 114°16'0 0.0
2014-Aug-24 14:28N 22°34' E 114°16'0 0.0
2014-Aug-24 13:28N 22°34' E 114°16'0 0.0
2014-Aug-24 12:28N 22°34' E 114°16'0 0.0
2014-Aug-24 11:28N 22°34' E 114°16'0 0.0
2014-Aug-24 10:28N 22°34' E 114°16'0 0.0
2014-Aug-24 09:28N 22°34' E 114°16'0 0.1
2014-Aug-24 08:28N 22°34' E 114°15'0 0.0
2014-Aug-24 07:28N 22°34' E 114°15'0 0.1
2014-Aug-24 06:28N 22°34' E 114°16'0 0.0
2014-Aug-24 05:28N 22°34' E 114°16'0 0.0
2014-Aug-24 04:28N 22°34' E 114°16'0 0.0
2014-Aug-24 03:32N 22°34' E 114°16'19 3.7
2014-Aug-23 22:29N 22°18' E 114°06'2 2.5
2014-Aug-23 21:32N 22°19' E 114°07'0 0.0
2014-Aug-23 20:08N 22°19' E 114°07'0 0.0
2014-Aug-23 19:20N 22°19' E 114°07'0 0.0
2014-Aug-23 03:26N 22°19' E 114°07'0 0.0
2014-Aug-23 02:32N 22°19' E 114°07'0 0.0
2014-Aug-23 01:32N 22°19' E 114°07'0 0.0
2014-Aug-23 00:14N 22°19' E 114°07'0 0.0
2014-Aug-22 23:32N 22°19' E 114°07'0 0.1
2014-Aug-22 22:25N 22°19' E 114°07'9 7.7
2014-Aug-22 21:12N 22°11' E 114°12'15711.3
2014-Aug-22 07:17N 22°54' E 116°56'1622.0
2014-Aug-22 06:33N 23°04' E 117°09'2221.8
2014-Aug-22 05:33N 23°16' E 117°29'2221.8
2014-Aug-22 04:33N 23°26' E 117°50'2322.6
2014-Aug-22 03:33N 23°42' E 118°08'2221.6
2014-Aug-22 02:33N 23°59' E 118°23'1717.1
2014-Aug-22 01:33N 24°15' E 118°16'1110.5
2014-Aug-22 00:33N 24°22' E 118°08'8 8.0
2014-Aug-21 23:33N 24°27' E 118°01'0 0.0
2014-Aug-21 22:31N 24°27' E 118°01'0 0.0
2014-Aug-21 21:31N 24°27' E 118°01'0 0.0
2014-Aug-21 20:25N 24°27' E 118°01'0 0.1
2014-Aug-21 19:31N 24°27' E 118°01'0 0.0
2014-Aug-21 18:19N 24°27' E 118°01'0 0.0
2014-Aug-21 17:31N 24°27' E 118°01'0 0.0
2014-Aug-21 16:13N 24°27' E 118°01'0 0.1
2014-Aug-21 15:13N 24°27' E 118°01'0 0.0
2014-Aug-21 10:31N 24°27' E 118°01'0 0.0
2014-Aug-21 09:25N 24°27' E 118°01'0 0.1
2014-Aug-21 08:25N 24°27' E 118°01'0 0.1
2014-Aug-21 07:31N 24°27' E 118°01'0 0.1
2014-Aug-21 06:31N 24°27' E 118°01'0 0.0
2014-Aug-21 05:31N 24°27' E 118°01'0 0.0
2014-Aug-21 04:19N 24°27' E 118°01'0 0.0
2014-Aug-21 03:07N 24°27' E 118°01'0 0.1
2014-Aug-21 02:33N 24°27' E 118°01'9 8.9
2014-Aug-21 01:33N 24°22' E 118°09'6 6.2
2014-Aug-21 00:33N 24°17' E 118°14'9 8.7
2014-Aug-20 23:33N 24°12' E 118°22'0 0.2
2014-Aug-20 21:10N 24°12' E 118°22'0 0.0
2014-Aug-20 20:28N 24°12' E 118°22'0 0.0
2014-Aug-20 19:28N 24°12' E 118°22'0 0.1
2014-Aug-20 18:28N 24°12' E 118°22'0 0.1
2014-Aug-20 17:28N 24°12' E 118°22'0 0.0
2014-Aug-20 16:28N 24°12' E 118°22'0 0.1
2014-Aug-20 15:16N 24°12' E 118°22'0 0.0
2014-Aug-20 13:28N 24°12' E 118°22'0 0.0
2014-Aug-20 12:16N 24°12' E 118°22'0 0.0
2014-Aug-20 09:10N 24°12' E 118°22'0 0.0
2014-Aug-20 08:16N 24°12' E 118°22'0 0.0
2014-Aug-20 06:16N 24°12' E 118°22'0 0.1
2014-Aug-20 05:10N 24°12' E 118°22'0 0.0
2014-Aug-20 04:22N 24°12' E 118°22'  

Dump ship's entire track history